createdAt,value
2018-05-03T00:00:03.870Z,75.54
2018-05-03T00:02:32.265Z,75.93
2018-05-03T00:04:59.861Z,77.97
2018-05-03T00:07:27.439Z,79.05
2018-05-03T00:09:55.085Z,79.24
2018-05-03T00:12:22.731Z,79.62
2018-05-03T00:14:50.975Z,79.86
2018-05-03T00:17:18.628Z,79.77
2018-05-03T00:19:46.281Z,80.12
2018-05-03T00:22:14.598Z,80.57
2018-05-03T00:24:42.404Z,80.47
2018-05-03T00:27:10.063Z,80.41
2018-05-03T00:29:37.717Z,80.29
2018-05-03T00:32:05.464Z,80.50
2018-05-03T00:34:33.052Z,80.27
2018-05-03T00:37:00.643Z,80.48
2018-05-03T00:39:28.375Z,80.63
2018-05-03T00:41:55.959Z,80.64
2018-05-03T00:44:24.332Z,81.15
2018-05-03T00:46:52.040Z,80.55
2018-05-03T00:49:19.631Z,80.96
2018-05-03T00:51:47.215Z,80.72
2018-05-03T00:54:26.861Z,80.81
2018-05-03T00:56:54.468Z,81.17
2018-05-03T00:59:22.108Z,81.08
2018-05-03T01:01:50.135Z,80.90
2018-05-03T01:04:17.799Z,80.99
2018-05-03T01:06:45.472Z,80.18
2018-05-03T01:09:13.123Z,80.54
2018-05-03T01:11:40.784Z,80.01
2018-05-03T01:14:08.437Z,80.12
2018-05-03T01:16:36.160Z,80.07
2018-05-03T01:19:03.792Z,80.12
2018-05-03T01:21:31.379Z,80.00
2018-05-03T01:23:59.103Z,80.16
2018-05-03T01:26:26.755Z,79.91
2018-05-03T01:28:54.416Z,79.87
2018-05-03T01:31:22.043Z,80.01
2018-05-03T01:33:49.642Z,80.13
2018-05-03T01:36:31.877Z,80.00
2018-05-03T01:38:59.455Z,79.95
2018-05-03T01:41:27.047Z,80.23
2018-05-03T01:43:54.798Z,80.20
2018-05-03T01:46:22.379Z,80.39
2018-05-03T01:48:49.958Z,80.13
2018-05-03T01:51:17.697Z,79.96
2018-05-03T01:53:45.315Z,79.71
2018-05-03T01:56:12.903Z,79.83
2018-05-03T01:58:40.604Z,79.64
2018-05-03T02:01:08.289Z,79.77
2018-05-03T02:03:36.032Z,79.74
2018-05-03T02:06:03.828Z,79.83
2018-05-03T02:08:31.416Z,79.54
2018-05-03T02:10:59.006Z,79.36
2018-05-03T02:13:26.732Z,79.54
2018-05-03T02:15:54.331Z,79.28
2018-05-03T02:18:21.911Z,79.63
2018-05-03T02:20:49.917Z,79.26
2018-05-03T02:23:17.503Z,79.46
2018-05-03T02:25:45.091Z,78.89
2018-05-03T02:28:13.283Z,77.85
2018-05-03T02:30:40.949Z,77.13
2018-05-03T02:33:08.589Z,77.51
2018-05-03T02:35:36.297Z,77.39
2018-05-03T02:38:03.945Z,77.69
2018-05-03T02:40:31.579Z,77.74
2018-05-03T02:42:59.250Z,78.42
2018-05-03T02:45:26.845Z,78.93
2018-05-03T02:47:54.441Z,78.86
2018-05-03T02:50:22.720Z,79.60
2018-05-03T02:52:50.328Z,80.18
2018-05-03T02:55:18.015Z,80.37
2018-05-03T02:58:03.279Z,80.40
2018-05-03T03:00:48.288Z,80.28
2018-05-03T03:03:43.717Z,79.98
2018-05-03T03:06:28.814Z,80.13
2018-05-03T03:09:13.853Z,80.00
2018-05-03T03:11:59.059Z,80.19
2018-05-03T03:14:44.084Z,81.00
2018-05-03T03:17:29.612Z,81.72
2018-05-03T03:20:15.972Z,82.06
2018-05-03T03:23:01.129Z,82.17
2018-05-03T03:25:59.278Z,82.28
2018-05-03T03:28:44.717Z,82.66
2018-05-03T03:31:30.024Z,82.99
2018-05-03T03:34:17.260Z,83.56
2018-05-03T03:40:03.151Z,82.78
2018-05-03T03:45:41.061Z,83.14
2018-05-03T03:48:08.709Z,83.54
2018-05-03T03:50:36.293Z,83.42
2018-05-03T03:53:04.438Z,83.32
2018-05-03T03:55:32.739Z,83.63
2018-05-03T03:58:00.392Z,83.54
2018-05-03T04:00:27.972Z,85.08
2018-05-03T04:02:55.768Z,85.36
2018-05-03T04:05:23.409Z,84.63
2018-05-03T04:07:51.549Z,85.84
2018-05-03T04:10:19.278Z,85.50
2018-05-03T04:12:46.926Z,85.14
2018-05-03T04:15:14.575Z,85.28
2018-05-03T04:17:54.010Z,85.08
2018-05-03T04:20:35.127Z,84.92
2018-05-03T04:23:23.711Z,85.05
2018-05-03T04:26:04.150Z,85.21
2018-05-03T04:28:31.869Z,85.68
2018-05-03T04:30:59.458Z,84.83
2018-05-03T04:33:27.038Z,85.94
2018-05-03T04:35:54.698Z,86.85
2018-05-03T04:38:22.284Z,86.83
2018-05-03T04:40:49.943Z,86.61
2018-05-03T04:43:17.743Z,85.75
2018-05-03T04:45:45.332Z,85.86
2018-05-03T04:48:12.940Z,85.04
2018-05-03T04:50:40.720Z,85.61
2018-05-03T04:53:08.316Z,85.60
2018-05-03T04:55:35.989Z,86.42
2018-05-03T04:58:03.825Z,85.99
2018-05-03T05:00:31.411Z,85.03
2018-05-03T05:02:58.997Z,84.97
2018-05-03T05:05:26.648Z,84.87
2018-05-03T05:07:54.590Z,83.77
2018-05-03T05:10:22.203Z,83.89
2018-05-03T05:12:50.009Z,84.27
2018-05-03T05:15:17.638Z,84.02
2018-05-03T05:17:45.251Z,83.71
2018-05-03T05:20:13.839Z,83.33
2018-05-03T05:22:41.480Z,83.43
2018-05-03T05:25:09.072Z,83.24
2018-05-03T05:27:36.709Z,83.28
2018-05-03T05:30:04.344Z,83.11
2018-05-03T05:32:31.999Z,83.19
2018-05-03T05:34:59.725Z,81.72
2018-05-03T05:37:27.304Z,81.96
2018-05-03T05:39:54.977Z,82.36
2018-05-03T05:42:22.771Z,81.61
2018-05-03T05:44:50.366Z,81.64
2018-05-03T05:47:18.034Z,81.38
2018-05-03T05:49:45.779Z,81.46
2018-05-03T05:52:13.400Z,81.31
2018-05-03T05:54:40.988Z,80.11
2018-05-03T05:57:08.673Z,80.39
2018-05-03T05:59:36.339Z,79.62
2018-05-03T06:02:03.942Z,79.61
2018-05-03T06:04:31.601Z,79.48
2018-05-03T06:06:59.208Z,78.71
2018-05-03T06:09:27.052Z,78.60
2018-05-03T06:11:54.760Z,78.68
2018-05-03T06:14:22.419Z,78.11
2018-05-03T06:16:50.112Z,77.42
2018-05-03T06:19:17.846Z,77.22
2018-05-03T06:21:45.445Z,77.24
2018-05-03T06:24:13.121Z,77.28
2018-05-03T06:26:40.987Z,77.24
2018-05-03T06:29:08.649Z,77.24
2018-05-03T06:31:36.248Z,77.31
2018-05-03T06:34:03.982Z,76.76
2018-05-03T06:36:31.667Z,76.81
2018-05-03T06:38:59.326Z,76.87
2018-05-03T06:41:27.058Z,76.80
2018-05-03T06:43:54.708Z,76.46
2018-05-03T06:46:22.299Z,76.53
2018-05-03T06:48:50.015Z,75.60
2018-05-03T06:51:17.671Z,75.04
2018-05-03T06:53:45.260Z,74.15
2018-05-03T06:56:13.016Z,74.19
2018-05-03T06:58:40.635Z,75.28
2018-05-03T07:01:08.299Z,74.72
2018-05-03T07:03:35.950Z,74.79
2018-05-03T07:06:03.669Z,74.72
2018-05-03T07:08:31.324Z,74.64
2018-05-03T07:10:59.147Z,75.45
2018-05-03T07:13:26.841Z,76.47
2018-05-03T07:15:54.434Z,78.45
2018-05-03T07:18:22.250Z,77.22
2018-05-03T07:20:49.912Z,78.44
2018-05-03T07:23:17.577Z,77.56
2018-05-03T07:25:45.376Z,77.78
2018-05-03T07:28:12.971Z,77.73
2018-05-03T07:30:40.665Z,77.86
2018-05-03T07:33:08.328Z,78.65
2018-05-03T07:35:36.786Z,78.19
2018-05-03T07:38:04.375Z,77.56
2018-05-03T07:40:32.092Z,77.34
2018-05-03T07:42:59.688Z,77.70
2018-05-03T07:45:27.367Z,77.36
2018-05-03T07:47:55.012Z,77.22
2018-05-03T07:50:22.600Z,76.84
2018-05-03T07:52:50.273Z,77.58
2018-05-03T07:55:17.927Z,78.09
2018-05-03T07:57:45.593Z,76.45
2018-05-03T08:00:13.176Z,77.43
2018-05-03T08:02:40.916Z,77.34
2018-05-03T08:05:08.539Z,76.26
2018-05-03T08:07:36.119Z,75.92
2018-05-03T08:10:03.863Z,75.36
2018-05-03T08:12:31.519Z,75.85
2018-05-03T08:14:59.152Z,75.45
2018-05-03T08:17:27.017Z,75.18
2018-05-03T08:19:54.597Z,75.18
2018-05-03T08:22:22.237Z,75.04
2018-05-03T08:24:49.899Z,74.25
2018-05-03T08:27:17.495Z,74.99
2018-05-03T08:29:45.166Z,74.89
2018-05-03T08:32:12.809Z,74.30
2018-05-03T08:34:40.443Z,74.93
2018-05-03T08:37:08.047Z,74.56
2018-05-03T08:39:36.095Z,73.71
2018-05-03T08:42:03.708Z,72.96
2018-05-03T08:44:31.365Z,73.13
2018-05-03T08:46:59.091Z,73.33
2018-05-03T08:49:26.680Z,73.04
2018-05-03T08:51:54.269Z,73.05
2018-05-03T08:54:21.937Z,73.29
2018-05-03T08:56:49.540Z,72.06
2018-05-03T08:59:17.120Z,71.96
2018-05-03T09:01:44.924Z,70.71
2018-05-03T09:04:12.604Z,69.79
2018-05-03T09:06:40.175Z,70.33
2018-05-03T09:09:07.800Z,67.86
2018-05-03T09:11:35.398Z,67.56
2018-05-03T09:14:03.061Z,65.44
2018-05-03T09:16:30.810Z,65.54
2018-05-03T09:18:58.447Z,65.14
2018-05-03T09:21:26.043Z,64.60
2018-05-03T09:23:53.819Z,64.44
2018-05-03T09:26:21.423Z,65.57
2018-05-03T09:28:49.049Z,62.96
2018-05-03T09:31:16.789Z,65.02
2018-05-03T09:33:44.392Z,63.07
2018-05-03T09:36:12.055Z,62.56
2018-05-03T09:38:39.834Z,60.41
2018-05-03T09:41:08.076Z,60.27
2018-05-03T09:43:35.744Z,59.79
2018-05-03T09:46:03.417Z,59.92
2018-05-03T09:48:31.068Z,61.48
2018-05-03T09:50:58.672Z,60.26
2018-05-03T09:53:26.348Z,55.60
2018-05-03T09:55:53.944Z,57.33
2018-05-03T09:58:21.576Z,57.04
2018-05-03T10:00:49.326Z,56.58
2018-05-03T10:03:16.964Z,57.75
2018-05-03T10:05:44.597Z,58.11
2018-05-03T10:08:12.386Z,58.15
2018-05-03T10:10:39.960Z,56.12
2018-05-03T10:13:07.736Z,55.01
2018-05-03T10:15:35.700Z,54.87
2018-05-03T10:18:03.300Z,54.88
2018-05-03T10:20:30.978Z,53.48
2018-05-03T10:22:58.650Z,54.25
2018-05-03T10:25:26.230Z,55.74
2018-05-03T10:33:43.254Z,56.04
2018-05-03T10:36:10.890Z,53.99
2018-05-03T10:38:38.520Z,54.89
2018-05-03T10:41:06.255Z,55.69
2018-05-03T10:43:33.904Z,54.46
2018-05-03T10:46:01.581Z,53.23
2018-05-03T10:48:29.278Z,51.76
2018-05-03T10:50:56.861Z,51.24
2018-05-03T10:53:25.263Z,50.65
2018-05-03T10:55:53.003Z,52.09
2018-05-03T10:58:20.598Z,51.30
2018-05-03T11:00:48.244Z,50.65
2018-05-03T11:03:15.900Z,51.02
2018-05-03T11:05:43.501Z,51.60
2018-05-03T11:08:11.193Z,49.99
2018-05-03T11:10:38.844Z,50.60
2018-05-03T11:13:06.436Z,52.11
2018-05-03T11:15:34.016Z,49.45
2018-05-03T11:18:01.860Z,48.90
2018-05-03T11:20:29.448Z,49.69
2018-05-03T11:22:57.044Z,49.07
2018-05-03T11:25:24.687Z,49.05
2018-05-03T11:27:52.270Z,50.67
2018-05-03T11:30:19.933Z,51.12
2018-05-03T11:32:47.597Z,49.51
2018-05-03T11:35:15.249Z,49.75
2018-05-03T11:37:43.582Z,50.60
2018-05-03T11:40:11.296Z,49.70
2018-05-03T11:42:39.064Z,50.47
2018-05-03T11:45:06.640Z,49.34
2018-05-03T11:47:34.338Z,47.82
2018-05-03T11:50:01.992Z,46.32
2018-05-03T11:52:29.609Z,46.27
2018-05-03T11:54:57.388Z,48.03
2018-05-03T11:57:25.037Z,46.60
2018-05-03T11:59:52.710Z,45.64
2018-05-03T12:02:20.450Z,46.58
2018-05-03T12:04:48.107Z,44.31
2018-05-03T12:07:15.699Z,46.53
2018-05-03T12:09:43.320Z,47.29
2018-05-03T12:12:10.976Z,45.43
2018-05-03T12:14:38.568Z,45.20
2018-05-03T12:17:06.318Z,45.69
2018-05-03T12:19:34.229Z,47.14
2018-05-03T12:22:01.847Z,46.00
2018-05-03T12:24:29.646Z,46.63
2018-05-03T12:26:57.208Z,46.21
2018-05-03T12:29:24.862Z,46.83
2018-05-03T12:31:52.626Z,46.37
2018-05-03T12:34:20.245Z,47.31
2018-05-03T12:36:47.843Z,47.53
2018-05-03T12:39:15.551Z,48.79
2018-05-03T12:41:43.145Z,45.36
2018-05-03T12:44:10.798Z,44.99
2018-05-03T12:46:38.558Z,45.63
2018-05-03T12:49:06.260Z,43.66
2018-05-03T12:51:33.857Z,43.96
2018-05-03T12:54:01.488Z,44.11
2018-05-03T12:56:29.164Z,43.94
2018-05-03T12:58:56.801Z,45.28
2018-05-03T13:01:25.192Z,46.34
2018-05-03T13:03:52.823Z,46.10
2018-05-03T13:06:20.469Z,42.34
2018-05-03T13:08:48.136Z,44.37
2018-05-03T13:11:15.744Z,44.58
2018-05-03T13:13:43.360Z,44.34
2018-05-03T13:16:11.032Z,43.85
2018-05-03T13:18:38.634Z,44.15
2018-05-03T13:21:06.303Z,43.28
2018-05-03T13:23:33.984Z,43.13
2018-05-03T13:26:01.577Z,43.89
2018-05-03T13:28:29.244Z,44.09
2018-05-03T13:30:56.880Z,44.05
2018-05-03T13:33:24.474Z,44.15
2018-05-03T13:35:52.132Z,43.90
2018-05-03T13:38:19.913Z,43.67
2018-05-03T13:40:47.624Z,44.53
2018-05-03T13:43:15.307Z,45.10
2018-05-03T13:45:43.030Z,42.92
2018-05-03T13:48:10.676Z,42.51
2018-05-03T13:50:38.257Z,43.16
2018-05-03T13:53:05.977Z,43.58
2018-05-03T13:55:33.660Z,44.08
2018-05-03T13:58:01.272Z,44.13
2018-05-03T14:00:28.932Z,43.03
2018-05-03T14:02:56.516Z,43.36
2018-05-03T14:05:24.132Z,43.13
2018-05-03T14:07:51.958Z,43.85
2018-05-03T14:10:20.192Z,45.18
2018-05-03T14:12:47.837Z,46.30
2018-05-03T14:15:15.500Z,46.32
2018-05-03T14:17:43.087Z,47.13
2018-05-03T14:20:10.710Z,46.76
2018-05-03T14:22:38.570Z,45.80
2018-05-03T14:25:06.225Z,44.46
2018-05-03T14:27:33.809Z,45.15
2018-05-03T14:30:01.616Z,45.62
2018-05-03T14:32:29.295Z,45.90
2018-05-03T14:34:56.903Z,45.53
2018-05-03T14:37:24.687Z,46.80
2018-05-03T14:39:52.280Z,46.69
2018-05-03T14:42:21.842Z,46.53
2018-05-03T14:44:49.568Z,47.65
2018-05-03T14:47:17.313Z,48.32
2018-05-03T14:49:45.497Z,48.65
2018-05-03T14:52:13.224Z,48.33
2018-05-03T14:54:40.868Z,49.15
2018-05-03T14:57:08.464Z,49.24
2018-05-03T14:59:36.243Z,48.71
2018-05-03T15:02:03.840Z,48.39
2018-05-03T15:04:31.429Z,49.38
2018-05-03T15:06:59.178Z,48.81
2018-05-03T15:09:26.763Z,48.62
2018-05-03T15:11:54.430Z,48.52
2018-05-03T15:14:22.137Z,49.32
2018-05-03T15:16:50.600Z,48.52
2018-05-03T15:19:18.297Z,48.93
2018-05-03T15:21:46.100Z,48.56
2018-05-03T15:24:13.893Z,48.99
2018-05-03T15:26:41.538Z,49.26
2018-05-03T15:29:09.264Z,49.18
2018-05-03T15:31:37.176Z,48.78
2018-05-03T15:34:04.757Z,49.98
2018-05-03T15:36:32.451Z,49.41
2018-05-03T15:39:00.105Z,49.87
2018-05-03T15:41:28.369Z,50.09
2018-05-03T15:43:56.030Z,48.94
2018-05-03T15:46:23.630Z,49.15
2018-05-03T15:48:51.293Z,49.62
2018-05-03T15:51:18.936Z,49.33
2018-05-03T15:53:46.610Z,49.52
2018-05-03T15:56:14.208Z,49.97
2018-05-03T15:58:41.933Z,49.78
2018-05-03T16:01:09.525Z,49.43
2018-05-03T16:03:37.144Z,50.43
2018-05-03T16:06:04.899Z,52.25
2018-05-03T16:08:32.489Z,50.00
2018-05-03T16:11:00.193Z,49.78
2018-05-03T16:13:27.835Z,49.90
2018-05-03T16:15:55.505Z,50.34
2018-05-03T16:18:23.096Z,50.16
2018-05-03T16:20:51.692Z,49.92
2018-05-03T16:23:19.303Z,50.65
2018-05-03T16:25:46.941Z,50.81
2018-05-03T16:28:14.580Z,51.31
2018-05-03T16:30:42.184Z,51.18
2018-05-03T16:33:09.866Z,51.51
2018-05-03T16:35:37.503Z,51.45
2018-05-03T16:38:05.114Z,51.60
2018-05-03T16:40:32.722Z,51.79
2018-05-03T16:43:31.790Z,52.11
2018-05-03T16:45:59.644Z,52.16
2018-05-03T16:48:27.410Z,52.02
2018-05-03T16:50:55.735Z,52.09
2018-05-03T16:53:23.372Z,52.38
2018-05-03T16:55:51.076Z,52.35
2018-05-03T16:58:18.745Z,52.50
2018-05-03T17:00:46.397Z,52.57
2018-05-03T17:03:14.200Z,52.74
2018-05-03T17:05:41.856Z,52.81
2018-05-03T17:08:09.505Z,53.05
2018-05-03T17:10:37.284Z,53.04
2018-05-03T17:13:04.885Z,53.40
2018-05-03T17:15:32.479Z,53.52
2018-05-03T17:18:00.136Z,53.57
2018-05-03T17:20:27.801Z,53.35
2018-05-03T17:22:55.460Z,53.94
2018-05-03T17:25:23.184Z,53.51
2018-05-03T17:27:51.169Z,53.44
2018-05-03T17:30:18.680Z,53.56
2018-05-03T17:32:46.406Z,53.79
2018-05-03T17:35:14.004Z,54.11
2018-05-03T17:37:41.609Z,54.28
2018-05-03T17:40:09.250Z,54.19
2018-05-03T17:42:36.848Z,54.00
2018-05-03T17:45:04.474Z,54.22
2018-05-03T17:47:32.215Z,54.24
2018-05-03T17:50:00.798Z,54.38
2018-05-03T17:52:28.484Z,54.49
2018-05-03T17:54:56.209Z,54.43
2018-05-03T17:57:23.792Z,54.52
2018-05-03T17:59:51.459Z,54.77
2018-05-03T18:02:19.200Z,54.96
2018-05-03T18:04:46.873Z,55.15
2018-05-03T18:07:14.519Z,55.68
2018-05-03T18:09:42.200Z,55.73
2018-05-03T18:12:09.848Z,55.36
2018-05-03T18:14:37.468Z,55.39
2018-05-03T18:17:05.212Z,55.87
2018-05-03T18:19:32.807Z,55.90
2018-05-03T18:22:00.700Z,55.98
2018-05-03T18:24:28.345Z,55.95
2018-05-03T18:26:55.932Z,56.08
2018-05-03T18:29:23.708Z,56.17
2018-05-03T18:31:51.416Z,56.04
2018-05-03T18:34:19.092Z,56.11
2018-05-03T18:36:46.683Z,55.90
2018-05-03T18:39:15.191Z,55.93
2018-05-03T18:41:42.912Z,55.85
2018-05-03T18:44:10.488Z,55.86
2018-05-03T18:46:38.287Z,56.23
2018-05-03T18:49:05.882Z,56.05
2018-05-03T18:51:33.480Z,55.92
2018-05-03T18:54:01.227Z,56.15
2018-05-03T18:56:29.712Z,55.65
2018-05-03T18:58:57.313Z,55.82
2018-05-03T19:01:24.957Z,56.07
2018-05-03T19:03:52.697Z,56.06
2018-05-03T19:06:20.318Z,55.77
2018-05-03T19:08:48.080Z,55.71
2018-05-03T19:11:15.689Z,55.30
2018-05-03T19:13:43.344Z,55.29
2018-05-03T19:16:11.020Z,55.18
2018-05-03T19:18:38.686Z,54.97
2018-05-03T19:21:06.365Z,55.57
2018-05-03T19:23:34.101Z,55.20
2018-05-03T19:26:01.702Z,56.11
2018-05-03T19:28:30.222Z,56.11
2018-05-03T19:30:58.400Z,56.36
2018-05-03T19:33:25.996Z,56.38
2018-05-03T19:35:53.668Z,56.57
2018-05-03T19:38:21.464Z,57.23
2018-05-03T19:40:49.065Z,57.58
2018-05-03T19:43:16.664Z,58.04
2018-05-03T19:45:44.404Z,58.32
2018-05-03T19:48:12.054Z,58.54
2018-05-03T19:50:39.651Z,58.71
2018-05-03T19:53:07.369Z,59.17
2018-05-03T19:55:35.014Z,59.26
2018-05-03T19:58:02.652Z,59.56
2018-05-03T20:00:30.465Z,60.74
2018-05-03T20:02:58.051Z,61.34
2018-05-03T20:05:25.687Z,61.53
2018-05-03T20:07:53.355Z,61.99
2018-05-03T20:10:20.968Z,61.56
2018-05-03T20:12:48.571Z,61.36
2018-05-03T20:15:16.254Z,61.50
2018-05-03T20:17:43.840Z,60.95
2018-05-03T20:20:11.453Z,61.50
2018-05-03T20:22:39.148Z,62.03
2018-05-03T20:25:06.844Z,62.07
2018-05-03T20:27:34.455Z,62.01
2018-05-03T20:30:02.201Z,61.89
2018-05-03T20:32:29.932Z,61.67
2018-05-03T20:34:57.976Z,62.00
2018-05-03T20:37:25.762Z,62.08
2018-05-03T20:39:53.401Z,62.61
2018-05-03T20:42:21.055Z,62.57
2018-05-03T20:44:48.736Z,63.00
2018-05-03T20:47:16.383Z,63.17
2018-05-03T20:49:43.979Z,63.41
2018-05-03T20:52:11.720Z,63.55
2018-05-03T20:54:39.307Z,64.04
2018-05-03T20:57:06.948Z,64.35
2018-05-03T20:59:34.631Z,64.74
2018-05-03T21:02:02.291Z,64.82
2018-05-03T21:04:29.883Z,64.96
2018-05-03T21:06:57.677Z,65.15
2018-05-03T21:09:25.355Z,65.68
2018-05-03T21:11:53.014Z,65.85
2018-05-03T21:14:20.656Z,65.88
2018-05-03T21:16:48.316Z,65.80
2018-05-03T21:19:15.900Z,66.30
2018-05-03T21:21:43.560Z,66.42
2018-05-03T21:24:11.216Z,66.56
2018-05-03T21:26:38.869Z,67.10
2018-05-03T21:29:06.600Z,66.80
2018-05-03T21:31:34.207Z,67.10
2018-05-03T21:34:02.060Z,67.14
2018-05-03T21:36:29.790Z,67.30
2018-05-03T21:38:57.407Z,67.51
2018-05-03T21:41:25.081Z,68.59
2018-05-03T21:43:52.807Z,68.66
2018-05-03T21:46:20.425Z,68.77
2018-05-03T21:48:48.066Z,68.82
2018-05-03T21:51:15.700Z,68.44
2018-05-03T21:53:43.294Z,68.51
2018-05-03T21:56:10.897Z,68.33
2018-05-03T21:58:38.548Z,68.34
2018-05-03T22:01:06.207Z,68.70
2018-05-03T22:03:33.793Z,68.48
2018-05-03T22:06:01.516Z,68.71
2018-05-03T22:08:29.117Z,68.79
2018-05-03T22:10:56.703Z,68.73
2018-05-03T22:13:24.486Z,68.92
2018-05-03T22:15:52.147Z,69.43
2018-05-03T22:18:19.764Z,69.11
2018-05-03T22:20:47.423Z,69.68
2018-05-03T22:23:15.073Z,69.86
2018-05-03T22:25:42.658Z,70.10
2018-05-03T22:28:10.442Z,70.59
2018-05-03T22:30:38.100Z,70.17
2018-05-03T22:33:05.766Z,70.55
2018-05-03T22:35:33.420Z,70.79
2018-05-03T22:38:01.013Z,70.63
2018-05-03T22:40:28.599Z,70.49
2018-05-03T22:42:57.285Z,70.88
2018-05-03T22:45:24.866Z,70.79
2018-05-03T22:47:52.465Z,70.87
2018-05-03T22:50:20.114Z,71.11
2018-05-03T22:52:48.352Z,71.34
2018-05-03T22:55:15.952Z,71.03
2018-05-03T22:57:43.594Z,71.41
2018-05-03T23:00:11.254Z,71.17
2018-05-03T23:02:38.836Z,71.27
2018-05-03T23:05:06.578Z,71.45
2018-05-03T23:07:34.156Z,71.07
2018-05-03T23:10:01.829Z,71.37
2018-05-03T23:12:29.461Z,71.36
2018-05-03T23:14:57.126Z,71.17
2018-05-03T23:17:24.715Z,70.97
2018-05-03T23:19:52.420Z,71.28
2018-05-03T23:22:20.015Z,70.79
2018-05-03T23:24:47.680Z,71.29
2018-05-03T23:27:15.419Z,70.82
2018-05-03T23:29:43.013Z,71.37
2018-05-03T23:32:10.661Z,71.20
2018-05-03T23:34:38.438Z,70.92
2018-05-03T23:37:06.099Z,70.82
2018-05-03T23:39:33.712Z,71.14
2018-05-03T23:42:01.441Z,71.04
2018-05-03T23:44:29.101Z,71.65
2018-05-03T23:46:56.753Z,71.55
2018-05-03T23:49:24.379Z,71.53
2018-05-03T23:51:51.973Z,71.96
2018-05-03T23:54:19.566Z,71.80
2018-05-03T23:56:47.223Z,71.86
2018-05-03T23:59:14.816Z,71.82
